TimeEST,TemperatureF,Dew PointF,Humidity,Sea Level PressureIn,VisibilityMPH,Wind Direction,Wind SpeedMPH,Gust SpeedMPH,PrecipitationIn,Events,Conditions,WindDirDegrees,DateUTC
12:56 AM,42.1,21.9,45,30.06,10.0,NNW,3.5,-,N/A,,Clear,340,2013-02-25 05:56:00
1:56 AM,41.0,21.9,47,30.08,10.0,NE,8.1,-,N/A,,Clear,40,2013-02-25 06:56:00
2:56 AM,37.9,25.0,60,30.09,10.0,NE,9.2,-,N/A,,Clear,50,2013-02-25 07:56:00
3:56 AM,36.0,24.1,62,30.09,10.0,NE,10.4,19.6,N/A,,Clear,50,2013-02-25 08:56:00
4:56 AM,35.1,23.0,61,30.12,10.0,ENE,9.2,-,N/A,,Clear,60,2013-02-25 09:56:00
5:56 AM,34.0,21.9,61,30.14,10.0,NE,9.2,-,N/A,,Clear,50,2013-02-25 10:56:00
6:56 AM,33.1,21.0,61,30.16,10.0,ENE,11.5,-,N/A,,Clear,60,2013-02-25 11:56:00
7:56 AM,33.1,19.9,59,30.19,10.0,ENE,6.9,-,N/A,,Clear,60,2013-02-25 12:56:00
8:56 AM,35.1,19.9,54,30.21,10.0,ENE,6.9,-,N/A,,Clear,60,2013-02-25 13:56:00
9:56 AM,37.0,19.9,50,30.23,10.0,NE,9.2,-,N/A,,Clear,40,2013-02-25 14:56:00
10:56 AM,37.9,19.9,48,30.22,10.0,ENE,6.9,-,N/A,,Clear,60,2013-02-25 15:56:00
11:56 AM,39.9,19.9,45,30.21,10.0,Variable,4.6,-,N/A,,Clear,0,2013-02-25 16:56:00
12:56 PM,41.0,21.0,45,30.17,10.0,Variable,5.8,-,N/A,,Clear,0,2013-02-25 17:56:00
1:56 PM,41.0,19.9,43,30.18,10.0,Variable,4.6,-,N/A,,Clear,0,2013-02-25 18:56:00
2:56 PM,41.0,21.0,45,30.16,10.0,NE,9.2,-,N/A,,Clear,40,2013-02-25 19:56:00
3:56 PM,41.0,21.0,45,30.15,10.0,NNE,5.8,-,N/A,,Clear,30,2013-02-25 20:56:00
4:56 PM,39.9,21.9,49,30.15,10.0,NE,5.8,-,N/A,,Clear,50,2013-02-25 21:56:00
5:56 PM,39.0,21.9,50,30.16,10.0,NE,6.9,-,N/A,,Clear,40,2013-02-25 22:56:00
6:56 PM,37.0,21.9,54,30.17,10.0,NNE,3.5,-,N/A,,Clear,30,2013-02-25 23:56:00
7:56 PM,35.1,24.1,64,30.18,10.0,NNE,3.5,-,N/A,,Clear,30,2013-02-26 00:56:00
8:56 PM,35.1,23.0,61,30.17,10.0,ENE,5.8,-,N/A,,Clear,60,2013-02-26 01:56:00
9:56 PM,36.0,21.9,57,30.17,10.0,ENE,4.6,-,N/A,,Clear,70,2013-02-26 02:56:00
10:56 PM,36.0,23.0,59,30.15,10.0,ENE,5.8,-,N/A,,Clear,60,2013-02-26 03:56:00
11:56 PM,36.0,23.0,59,30.15,10.0,NE,9.2,-,N/A,,Scattered Clouds,50,2013-02-26 04:56:00